sensor_id;sensor_type;location;lat;lon;timestamp;P1;durP1;ratioP1;P2;durP2;ratioP2
20657;SDS011;10488;50.846;4.078;2024-03-08T00:00:13;27.60;;;14.80;;
20657;SDS011;10488;50.846;4.078;2024-03-08T00:02:40;34.15;;;16.48;;
20657;SDS011;10488;50.846;4.078;2024-03-08T00:05:09;32.28;;;16.05;;
20657;SDS011;10488;50.846;4.078;2024-03-08T00:07:36;33.15;;;16.88;;
20657;SDS011;10488;50.846;4.078;2024-03-08T00:10:06;29.77;;;16.05;;
20657;SDS011;10488;50.846;4.078;2024-03-08T00:12:36;32.10;;;16.27;;
20657;SDS011;10488;50.846;4.078;2024-03-08T00:15:09;28.80;;;15.55;;
20657;SDS011;10488;50.846;4.078;2024-03-08T00:17:35;31.50;;;17.15;;
20657;SDS011;10488;50.846;4.078;2024-03-08T00:20:01;34.60;;;16.70;;
20657;SDS011;10488;50.846;4.078;2024-03-08T00:22:33;31.30;;;16.02;;
20657;SDS011;10488;50.846;4.078;2024-03-08T00:24:59;31.05;;;15.77;;
20657;SDS011;10488;50.846;4.078;2024-03-08T00:27:25;31.63;;;17.17;;
20657;SDS011;10488;50.846;4.078;2024-03-08T00:29:50;31.75;;;16.50;;
20657;SDS011;10488;50.846;4.078;2024-03-08T00:32:16;34.58;;;17.00;;
20657;SDS011;10488;50.846;4.078;2024-03-08T00:34:42;36.70;;;18.02;;
20657;SDS011;10488;50.846;4.078;2024-03-08T00:37:08;31.92;;;15.48;;
20657;SDS011;10488;50.846;4.078;2024-03-08T00:39:33;34.03;;;17.52;;
20657;SDS011;10488;50.846;4.078;2024-03-08T00:41:59;30.95;;;15.70;;
20657;SDS011;10488;50.846;4.078;2024-03-08T00:44:25;38.30;;;16.23;;
20657;SDS011;10488;50.846;4.078;2024-03-08T00:46:50;35.10;;;16.60;;
20657;SDS011;10488;50.846;4.078;2024-03-08T00:49:16;29.65;;;15.70;;
20657;SDS011;10488;50.846;4.078;2024-03-08T00:51:42;30.67;;;16.67;;
20657;SDS011;10488;50.846;4.078;2024-03-08T00:54:08;32.42;;;15.93;;
20657;SDS011;10488;50.846;4.078;2024-03-08T00:56:34;33.45;;;16.35;;
20657;SDS011;10488;50.846;4.078;2024-03-08T00:59:00;29.90;;;15.57;;
20657;SDS011;10488;50.846;4.078;2024-03-08T01:01:27;29.35;;;16.02;;
20657;SDS011;10488;50.846;4.078;2024-03-08T01:03:53;31.13;;;16.43;;
20657;SDS011;10488;50.846;4.078;2024-03-08T01:06:19;28.30;;;15.33;;
20657;SDS011;10488;50.846;4.078;2024-03-08T01:08:45;33.13;;;17.60;;
20657;SDS011;10488;50.846;4.078;2024-03-08T01:11:12;32.78;;;16.85;;
20657;SDS011;10488;50.846;4.078;2024-03-08T01:13:39;29.77;;;16.55;;
20657;SDS011;10488;50.846;4.078;2024-03-08T01:16:04;34.17;;;16.60;;
20657;SDS011;10488;50.846;4.078;2024-03-08T01:18:30;34.53;;;16.20;;
20657;SDS011;10488;50.846;4.078;2024-03-08T01:20:57;29.40;;;16.45;;
20657;SDS011;10488;50.846;4.078;2024-03-08T01:23:22;34.77;;;15.80;;
20657;SDS011;10488;50.846;4.078;2024-03-08T01:25:49;32.67;;;16.30;;
20657;SDS011;10488;50.846;4.078;2024-03-08T01:28:21;33.35;;;16.13;;
20657;SDS011;10488;50.846;4.078;2024-03-08T01:30:50;34.80;;;17.20;;
20657;SDS011;10488;50.846;4.078;2024-03-08T01:33:20;32.92;;;16.02;;
20657;SDS011;10488;50.846;4.078;2024-03-08T01:35:50;33.45;;;15.70;;
20657;SDS011;10488;50.846;4.078;2024-03-08T01:38:17;34.13;;;17.70;;
20657;SDS011;10488;50.846;4.078;2024-03-08T01:40:43;29.33;;;15.65;;
20657;SDS011;10488;50.846;4.078;2024-03-08T01:43:22;30.00;;;15.67;;
20657;SDS011;10488;50.846;4.078;2024-03-08T01:45:53;33.00;;;16.52;;
20657;SDS011;10488;50.846;4.078;2024-03-08T01:48:24;28.95;;;16.42;;
20657;SDS011;10488;50.846;4.078;2024-03-08T01:50:51;33.40;;;17.02;;
20657;SDS011;10488;50.846;4.078;2024-03-08T01:53:19;32.77;;;17.33;;
20657;SDS011;10488;50.846;4.078;2024-03-08T01:55:46;34.85;;;16.80;;
20657;SDS011;10488;50.846;4.078;2024-03-08T01:58:13;32.97;;;17.27;;
20657;SDS011;10488;50.846;4.078;2024-03-08T02:00:43;34.75;;;16.73;;
20657;SDS011;10488;50.846;4.078;2024-03-08T02:03:10;34.57;;;18.47;;
20657;SDS011;10488;50.846;4.078;2024-03-08T02:05:36;35.17;;;17.17;;
20657;SDS011;10488;50.846;4.078;2024-03-08T02:08:03;31.43;;;15.93;;
20657;SDS011;10488;50.846;4.078;2024-03-08T02:10:32;38.83;;;17.45;;
20657;SDS011;10488;50.846;4.078;2024-03-08T02:12:59;35.77;;;18.03;;
20657;SDS011;10488;50.846;4.078;2024-03-08T02:15:43;36.33;;;16.60;;
20657;SDS011;10488;50.846;4.078;2024-03-08T02:18:15;35.53;;;16.60;;
20657;SDS011;10488;50.846;4.078;2024-03-08T02:20:42;35.63;;;18.30;;
20657;SDS011;10488;50.846;4.078;2024-03-08T02:23:08;33.03;;;18.40;;
20657;SDS011;10488;50.846;4.078;2024-03-08T02:25:34;32.57;;;17.07;;
20657;SDS011;10488;50.846;4.078;2024-03-08T02:28:00;34.07;;;18.77;;
20657;SDS011;10488;50.846;4.078;2024-03-08T02:30:26;34.72;;;17.77;;
20657;SDS011;10488;50.846;4.078;2024-03-08T02:32:54;35.63;;;18.97;;
20657;SDS011;10488;50.846;4.078;2024-03-08T02:35:20;34.97;;;17.95;;
20657;SDS011;10488;50.846;4.078;2024-03-08T02:37:46;40.30;;;19.07;;
20657;SDS011;10488;50.846;4.078;2024-03-08T02:40:12;37.80;;;18.37;;
20657;SDS011;10488;50.846;4.078;2024-03-08T02:42:38;37.73;;;19.07;;
20657;SDS011;10488;50.846;4.078;2024-03-08T02:45:04;40.83;;;19.37;;
20657;SDS011;10488;50.846;4.078;2024-03-08T02:47:31;42.73;;;20.00;;
20657;SDS011;10488;50.846;4.078;2024-03-08T02:49:57;40.03;;;19.85;;
20657;SDS011;10488;50.846;4.078;2024-03-08T02:52:22;36.88;;;21.02;;
20657;SDS011;10488;50.846;4.078;2024-03-08T02:54:48;35.87;;;19.43;;
20657;SDS011;10488;50.846;4.078;2024-03-08T02:57:14;39.57;;;20.70;;
20657;SDS011;10488;50.846;4.078;2024-03-08T02:59:40;40.10;;;20.00;;
20657;SDS011;10488;50.846;4.078;2024-03-08T03:02:06;39.73;;;19.80;;
20657;SDS011;10488;50.846;4.078;2024-03-08T03:04:32;38.37;;;20.43;;
20657;SDS011;10488;50.846;4.078;2024-03-08T03:06:59;37.57;;;21.13;;
20657;SDS011;10488;50.846;4.078;2024-03-08T03:09:25;37.40;;;20.40;;
20657;SDS011;10488;50.846;4.078;2024-03-08T03:11:55;37.50;;;20.70;;
20657;SDS011;10488;50.846;4.078;2024-03-08T03:14:22;35.00;;;19.90;;
20657;SDS011;10488;50.846;4.078;2024-03-08T03:16:47;36.17;;;20.07;;
20657;SDS011;10488;50.846;4.078;2024-03-08T03:19:13;37.00;;;20.87;;
20657;SDS011;10488;50.846;4.078;2024-03-08T03:21:40;39.20;;;22.00;;
20657;SDS011;10488;50.846;4.078;2024-03-08T03:24:08;38.30;;;21.70;;
20657;SDS011;10488;50.846;4.078;2024-03-08T03:26:38;38.40;;;21.80;;
20657;SDS011;10488;50.846;4.078;2024-03-08T03:29:05;38.80;;;21.77;;
20657;SDS011;10488;50.846;4.078;2024-03-08T03:31:31;39.80;;;21.40;;
20657;SDS011;10488;50.846;4.078;2024-03-08T03:33:57;35.13;;;20.83;;
20657;SDS011;10488;50.846;4.078;2024-03-08T03:36:27;46.43;;;22.70;;
20657;SDS011;10488;50.846;4.078;2024-03-08T03:38:53;37.33;;;22.43;;
20657;SDS011;10488;50.846;4.078;2024-03-08T03:41:32;42.53;;;22.50;;
20657;SDS011;10488;50.846;4.078;2024-03-08T03:43:57;39.80;;;22.73;;
20657;SDS011;10488;50.846;4.078;2024-03-08T03:46:24;37.23;;;20.87;;
20657;SDS011;10488;50.846;4.078;2024-03-08T03:48:51;40.77;;;22.63;;
20657;SDS011;10488;50.846;4.078;2024-03-08T03:51:16;37.73;;;22.83;;
20657;SDS011;10488;50.846;4.078;2024-03-08T03:53:42;38.90;;;22.80;;
20657;SDS011;10488;50.846;4.078;2024-03-08T03:56:08;38.93;;;21.47;;
20657;SDS011;10488;50.846;4.078;2024-03-08T03:58:33;42.73;;;22.70;;
20657;SDS011;10488;50.846;4.078;2024-03-08T04:00:59;39.03;;;22.40;;
20657;SDS011;10488;50.846;4.078;2024-03-08T04:03:24;39.37;;;22.67;;
20657;SDS011;10488;50.846;4.078;2024-03-08T04:05:50;42.63;;;23.23;;
20657;SDS011;10488;50.846;4.078;2024-03-08T04:08:16;50.87;;;24.33;;
20657;SDS011;10488;50.846;4.078;2024-03-08T04:10:42;47.67;;;24.47;;
20657;SDS011;10488;50.846;4.078;2024-03-08T04:13:07;39.93;;;23.70;;
20657;SDS011;10488;50.846;4.078;2024-03-08T04:15:34;38.23;;;22.30;;
20657;SDS011;10488;50.846;4.078;2024-03-08T04:18:00;45.03;;;23.80;;
20657;SDS011;10488;50.846;4.078;2024-03-08T04:20:26;46.40;;;23.07;;
20657;SDS011;10488;50.846;4.078;2024-03-08T04:22:52;43.90;;;24.57;;
20657;SDS011;10488;50.846;4.078;2024-03-08T04:25:18;41.77;;;24.07;;
20657;SDS011;10488;50.846;4.078;2024-03-08T04:27:45;45.93;;;23.07;;
20657;SDS011;10488;50.846;4.078;2024-03-08T04:30:12;45.37;;;22.43;;
20657;SDS011;10488;50.846;4.078;2024-03-08T04:32:37;42.97;;;23.57;;
20657;SDS011;10488;50.846;4.078;2024-03-08T04:35:03;47.07;;;23.60;;
20657;SDS011;10488;50.846;4.078;2024-03-08T04:37:29;41.67;;;22.67;;
20657;SDS011;10488;50.846;4.078;2024-03-08T04:39:55;40.53;;;23.77;;
20657;SDS011;10488;50.846;4.078;2024-03-08T04:42:20;39.17;;;22.65;;
20657;SDS011;10488;50.846;4.078;2024-03-08T04:44:47;42.67;;;23.57;;
20657;SDS011;10488;50.846;4.078;2024-03-08T04:47:13;37.27;;;22.93;;
20657;SDS011;10488;50.846;4.078;2024-03-08T04:49:38;41.27;;;22.83;;
20657;SDS011;10488;50.846;4.078;2024-03-08T04:52:04;40.97;;;23.73;;
20657;SDS011;10488;50.846;4.078;2024-03-08T04:54:30;39.47;;;22.40;;
20657;SDS011;10488;50.846;4.078;2024-03-08T04:56:56;38.93;;;22.60;;
20657;SDS011;10488;50.846;4.078;2024-03-08T04:59:22;42.50;;;23.73;;
20657;SDS011;10488;50.846;4.078;2024-03-08T05:01:49;43.57;;;25.20;;
20657;SDS011;10488;50.846;4.078;2024-03-08T05:04:14;40.90;;;23.33;;
20657;SDS011;10488;50.846;4.078;2024-03-08T05:06:40;41.60;;;23.87;;
20657;SDS011;10488;50.846;4.078;2024-03-08T05:09:06;38.93;;;22.80;;
20657;SDS011;10488;50.846;4.078;2024-03-08T05:11:44;42.10;;;23.37;;
20657;SDS011;10488;50.846;4.078;2024-03-08T05:14:11;40.67;;;23.87;;
20657;SDS011;10488;50.846;4.078;2024-03-08T05:16:46;40.53;;;23.20;;
20657;SDS011;10488;50.846;4.078;2024-03-08T05:19:13;39.90;;;24.10;;
20657;SDS011;10488;50.846;4.078;2024-03-08T05:21:51;40.33;;;23.30;;
20657;SDS011;10488;50.846;4.078;2024-03-08T05:24:17;42.50;;;23.27;;
20657;SDS011;10488;50.846;4.078;2024-03-08T05:26:43;42.90;;;24.23;;
20657;SDS011;10488;50.846;4.078;2024-03-08T05:29:09;44.20;;;23.30;;
20657;SDS011;10488;50.846;4.078;2024-03-08T05:31:50;45.60;;;23.87;;
20657;SDS011;10488;50.846;4.078;2024-03-08T05:34:20;44.97;;;23.73;;
20657;SDS011;10488;50.846;4.078;2024-03-08T05:36:46;41.13;;;23.77;;
20657;SDS011;10488;50.846;4.078;2024-03-08T05:39:14;39.87;;;22.90;;
20657;SDS011;10488;50.846;4.078;2024-03-08T05:41:41;45.27;;;23.10;;
20657;SDS011;10488;50.846;4.078;2024-03-08T05:44:07;43.90;;;25.10;;
20657;SDS011;10488;50.846;4.078;2024-03-08T05:46:34;43.83;;;23.53;;
20657;SDS011;10488;50.846;4.078;2024-03-08T05:49:03;39.27;;;23.80;;
20657;SDS011;10488;50.846;4.078;2024-03-08T05:51:31;47.20;;;24.57;;
20657;SDS011;10488;50.846;4.078;2024-03-08T05:53:58;44.30;;;23.60;;
20657;SDS011;10488;50.846;4.078;2024-03-08T05:56:23;47.07;;;25.13;;
20657;SDS011;10488;50.846;4.078;2024-03-08T05:58:50;43.00;;;23.70;;
20657;SDS011;10488;50.846;4.078;2024-03-08T06:01:15;38.90;;;23.37;;
20657;SDS011;10488;50.846;4.078;2024-03-08T06:03:41;43.10;;;23.20;;
20657;SDS011;10488;50.846;4.078;2024-03-08T06:06:13;43.67;;;24.77;;
20657;SDS011;10488;50.846;4.078;2024-03-08T06:08:39;44.57;;;24.03;;
20657;SDS011;10488;50.846;4.078;2024-03-08T06:11:05;40.87;;;23.57;;
20657;SDS011;10488;50.846;4.078;2024-03-08T06:13:31;42.63;;;22.97;;
20657;SDS011;10488;50.846;4.078;2024-03-08T06:15:58;43.67;;;24.47;;
20657;SDS011;10488;50.846;4.078;2024-03-08T06:18:25;44.40;;;24.07;;
20657;SDS011;10488;50.846;4.078;2024-03-08T06:20:51;45.60;;;23.77;;
20657;SDS011;10488;50.846;4.078;2024-03-08T06:23:17;42.93;;;23.83;;
20657;SDS011;10488;50.846;4.078;2024-03-08T06:25:46;40.93;;;23.40;;
20657;SDS011;10488;50.846;4.078;2024-03-08T06:28:12;42.63;;;23.50;;
20657;SDS011;10488;50.846;4.078;2024-03-08T06:30:39;41.60;;;23.67;;
20657;SDS011;10488;50.846;4.078;2024-03-08T06:33:05;43.47;;;25.57;;
20657;SDS011;10488;50.846;4.078;2024-03-08T06:35:32;43.70;;;23.83;;
20657;SDS011;10488;50.846;4.078;2024-03-08T06:38:00;42.90;;;23.17;;
20657;SDS011;10488;50.846;4.078;2024-03-08T06:40:28;36.83;;;22.93;;
20657;SDS011;10488;50.846;4.078;2024-03-08T06:42:54;42.73;;;24.40;;
20657;SDS011;10488;50.846;4.078;2024-03-08T06:45:19;43.43;;;22.60;;
20657;SDS011;10488;50.846;4.078;2024-03-08T06:47:46;40.80;;;23.27;;
20657;SDS011;10488;50.846;4.078;2024-03-08T06:50:12;43.40;;;22.67;;
20657;SDS011;10488;50.846;4.078;2024-03-08T06:52:37;45.03;;;24.93;;
20657;SDS011;10488;50.846;4.078;2024-03-08T06:55:05;40.47;;;24.60;;
20657;SDS011;10488;50.846;4.078;2024-03-08T06:57:31;37.87;;;22.30;;
20657;SDS011;10488;50.846;4.078;2024-03-08T06:59:57;41.37;;;21.60;;
20657;SDS011;10488;50.846;4.078;2024-03-08T07:02:23;43.97;;;23.13;;
20657;SDS011;10488;50.846;4.078;2024-03-08T07:04:52;44.47;;;23.53;;
20657;SDS011;10488;50.846;4.078;2024-03-08T07:07:18;39.33;;;22.67;;
20657;SDS011;10488;50.846;4.078;2024-03-08T07:09:45;38.40;;;22.87;;
20657;SDS011;10488;50.846;4.078;2024-03-08T07:12:11;41.33;;;22.40;;
20657;SDS011;10488;50.846;4.078;2024-03-08T07:14:38;43.87;;;23.67;;
20657;SDS011;10488;50.846;4.078;2024-03-08T07:17:10;39.50;;;22.10;;
20657;SDS011;10488;50.846;4.078;2024-03-08T07:19:36;38.47;;;21.13;;
20657;SDS011;10488;50.846;4.078;2024-03-08T07:22:03;41.67;;;22.83;;
20657;SDS011;10488;50.846;4.078;2024-03-08T07:24:30;41.73;;;23.17;;
20657;SDS011;10488;50.846;4.078;2024-03-08T07:27:13;38.60;;;22.77;;
20657;SDS011;10488;50.846;4.078;2024-03-08T07:29:39;48.07;;;27.43;;
20657;SDS011;10488;50.846;4.078;2024-03-08T07:32:05;40.47;;;22.63;;
20657;SDS011;10488;50.846;4.078;2024-03-08T07:35:00;36.72;;;21.85;;
20657;SDS011;10488;50.846;4.078;2024-03-08T07:37:27;34.80;;;20.35;;
20657;SDS011;10488;50.846;4.078;2024-03-08T07:39:52;52.67;;;35.58;;
20657;SDS011;10488;50.846;4.078;2024-03-08T07:42:18;36.80;;;23.35;;
20657;SDS011;10488;50.846;4.078;2024-03-08T07:44:44;30.25;;;18.90;;
20657;SDS011;10488;50.846;4.078;2024-03-08T07:47:11;32.40;;;19.70;;
20657;SDS011;10488;50.846;4.078;2024-03-08T07:49:37;36.15;;;19.30;;
20657;SDS011;10488;50.846;4.078;2024-03-08T07:52:03;35.15;;;19.60;;
20657;SDS011;10488;50.846;4.078;2024-03-08T07:54:29;32.58;;;20.25;;
20657;SDS011;10488;50.846;4.078;2024-03-08T07:56:55;30.27;;;19.27;;
20657;SDS011;10488;50.846;4.078;2024-03-08T07:59:21;30.77;;;18.63;;
20657;SDS011;10488;50.846;4.078;2024-03-08T08:01:47;29.92;;;18.17;;
20657;SDS011;10488;50.846;4.078;2024-03-08T08:04:13;35.72;;;22.55;;
20657;SDS011;10488;50.846;4.078;2024-03-08T08:06:39;96.68;;;48.15;;
20657;SDS011;10488;50.846;4.078;2024-03-08T08:09:08;29.77;;;19.60;;
20657;SDS011;10488;50.846;4.078;2024-03-08T08:11:40;60.20;;;34.58;;
20657;SDS011;10488;50.846;4.078;2024-03-08T08:14:08;31.23;;;18.48;;
20657;SDS011;10488;50.846;4.078;2024-03-08T08:16:35;31.45;;;18.88;;
20657;SDS011;10488;50.846;4.078;2024-03-08T08:19:06;29.95;;;18.33;;
20657;SDS011;10488;50.846;4.078;2024-03-08T08:21:35;29.92;;;17.10;;
20657;SDS011;10488;50.846;4.078;2024-03-08T08:24:02;29.80;;;17.05;;
20657;SDS011;10488;50.846;4.078;2024-03-08T08:26:28;28.05;;;18.38;;
20657;SDS011;10488;50.846;4.078;2024-03-08T08:28:54;29.27;;;19.63;;
20657;SDS011;10488;50.846;4.078;2024-03-08T08:31:20;27.52;;;16.90;;
20657;SDS011;10488;50.846;4.078;2024-03-08T08:33:45;47.53;;;27.70;;
20657;SDS011;10488;50.846;4.078;2024-03-08T08:36:13;30.67;;;17.05;;
20657;SDS011;10488;50.846;4.078;2024-03-08T08:38:38;27.10;;;16.83;;
20657;SDS011;10488;50.846;4.078;2024-03-08T08:41:04;32.60;;;16.92;;
20657;SDS011;10488;50.846;4.078;2024-03-08T08:43:31;30.92;;;16.65;;
20657;SDS011;10488;50.846;4.078;2024-03-08T08:45:58;29.05;;;17.23;;
20657;SDS011;10488;50.846;4.078;2024-03-08T08:48:24;29.98;;;17.30;;
20657;SDS011;10488;50.846;4.078;2024-03-08T08:50:49;29.25;;;17.05;;
20657;SDS011;10488;50.846;4.078;2024-03-08T08:53:17;28.75;;;17.15;;
20657;SDS011;10488;50.846;4.078;2024-03-08T08:55:43;28.75;;;16.85;;
20657;SDS011;10488;50.846;4.078;2024-03-08T08:58:11;25.98;;;16.05;;
20657;SDS011;10488;50.846;4.078;2024-03-08T09:00:36;35.72;;;18.27;;
20657;SDS011;10488;50.846;4.078;2024-03-08T09:03:02;29.20;;;16.42;;
20657;SDS011;10488;50.846;4.078;2024-03-08T09:05:28;30.00;;;18.02;;
20657;SDS011;10488;50.846;4.078;2024-03-08T09:07:53;24.02;;;15.60;;
20657;SDS011;10488;50.846;4.078;2024-03-08T09:10:20;33.78;;;19.85;;
20657;SDS011;10488;50.846;4.078;2024-03-08T09:12:46;33.08;;;17.25;;
20657;SDS011;10488;50.846;4.078;2024-03-08T09:15:12;32.42;;;19.80;;
20657;SDS011;10488;50.846;4.078;2024-03-08T09:17:38;33.40;;;18.83;;
20657;SDS011;10488;50.846;4.078;2024-03-08T09:20:05;30.70;;;18.83;;
20657;SDS011;10488;50.846;4.078;2024-03-08T09:22:35;25.95;;;17.13;;
20657;SDS011;10488;50.846;4.078;2024-03-08T09:25:01;33.20;;;18.05;;
20657;SDS011;10488;50.846;4.078;2024-03-08T09:27:30;25.52;;;16.67;;
20657;SDS011;10488;50.846;4.078;2024-03-08T09:29:55;28.88;;;16.17;;
20657;SDS011;10488;50.846;4.078;2024-03-08T09:32:21;27.55;;;17.38;;
20657;SDS011;10488;50.846;4.078;2024-03-08T09:34:47;32.67;;;18.02;;
20657;SDS011;10488;50.846;4.078;2024-03-08T09:37:13;30.17;;;18.90;;
20657;SDS011;10488;50.846;4.078;2024-03-08T09:39:39;30.90;;;17.45;;
20657;SDS011;10488;50.846;4.078;2024-03-08T09:42:04;29.92;;;17.30;;
20657;SDS011;10488;50.846;4.078;2024-03-08T09:44:31;27.73;;;17.08;;
20657;SDS011;10488;50.846;4.078;2024-03-08T09:46:57;27.42;;;16.60;;
20657;SDS011;10488;50.846;4.078;2024-03-08T09:49:24;26.05;;;15.90;;
20657;SDS011;10488;50.846;4.078;2024-03-08T09:51:49;27.38;;;15.40;;
20657;SDS011;10488;50.846;4.078;2024-03-08T09:54:16;27.38;;;16.15;;
20657;SDS011;10488;50.846;4.078;2024-03-08T09:56:42;31.20;;;17.27;;
20657;SDS011;10488;50.846;4.078;2024-03-08T09:59:09;25.10;;;15.80;;
20657;SDS011;10488;50.846;4.078;2024-03-08T10:01:47;27.52;;;16.38;;
20657;SDS011;10488;50.846;4.078;2024-03-08T10:04:17;29.30;;;15.82;;
20657;SDS011;10488;50.846;4.078;2024-03-08T10:06:43;30.10;;;15.27;;
20657;SDS011;10488;50.846;4.078;2024-03-08T10:09:12;26.73;;;15.55;;
20657;SDS011;10488;50.846;4.078;2024-03-08T10:11:39;28.00;;;16.38;;
20657;SDS011;10488;50.846;4.078;2024-03-08T10:14:05;26.85;;;15.60;;
20657;SDS011;10488;50.846;4.078;2024-03-08T10:16:32;24.80;;;15.60;;
20657;SDS011;10488;50.846;4.078;2024-03-08T10:18:59;27.08;;;15.95;;
20657;SDS011;10488;50.846;4.078;2024-03-08T10:21:25;22.40;;;13.30;;
20657;SDS011;10488;50.846;4.078;2024-03-08T10:23:52;29.40;;;15.50;;
20657;SDS011;10488;50.846;4.078;2024-03-08T10:26:18;25.65;;;15.18;;
20657;SDS011;10488;50.846;4.078;2024-03-08T10:28:47;27.05;;;15.18;;
20657;SDS011;10488;50.846;4.078;2024-03-08T10:31:14;21.92;;;14.85;;
20657;SDS011;10488;50.846;4.078;2024-03-08T10:33:44;27.10;;;15.52;;
20657;SDS011;10488;50.846;4.078;2024-03-08T10:36:10;24.50;;;14.35;;
20657;SDS011;10488;50.846;4.078;2024-03-08T10:38:38;26.58;;;15.88;;
20657;SDS011;10488;50.846;4.078;2024-03-08T10:41:08;25.80;;;15.23;;
20657;SDS011;10488;50.846;4.078;2024-03-08T10:46:24;24.45;;;15.18;;
20657;SDS011;10488;50.846;4.078;2024-03-08T10:48:55;29.10;;;15.88;;
20657;SDS011;10488;50.846;4.078;2024-03-08T10:51:27;25.65;;;14.60;;
20657;SDS011;10488;50.846;4.078;2024-03-08T10:53:56;26.42;;;13.70;;
20657;SDS011;10488;50.846;4.078;2024-03-08T10:56:28;31.02;;;14.75;;
20657;SDS011;10488;50.846;4.078;2024-03-08T10:58:54;26.63;;;15.02;;
20657;SDS011;10488;50.846;4.078;2024-03-08T11:01:20;28.05;;;16.73;;
20657;SDS011;10488;50.846;4.078;2024-03-08T11:03:47;28.95;;;15.63;;
20657;SDS011;10488;50.846;4.078;2024-03-08T11:08:56;22.42;;;15.00;;
20657;SDS011;10488;50.846;4.078;2024-03-08T11:11:30;45.10;;;23.02;;
20657;SDS011;10488;50.846;4.078;2024-03-08T11:13:59;49.58;;;26.05;;
20657;SDS011;10488;50.846;4.078;2024-03-08T11:18:59;25.67;;;14.30;;
20657;SDS011;10488;50.846;4.078;2024-03-08T11:21:29;32.95;;;17.67;;
20657;SDS011;10488;50.846;4.078;2024-03-08T11:24:01;28.38;;;18.38;;
20657;SDS011;10488;50.846;4.078;2024-03-08T11:26:41;31.48;;;20.92;;
20657;SDS011;10488;50.846;4.078;2024-03-08T11:32:14;26.70;;;15.93;;
20657;SDS011;10488;50.846;4.078;2024-03-08T11:34:42;21.15;;;13.85;;
20657;SDS011;10488;50.846;4.078;2024-03-08T11:37:16;25.85;;;14.15;;
20657;SDS011;10488;50.846;4.078;2024-03-08T11:39:50;23.92;;;14.90;;
20657;SDS011;10488;50.846;4.078;2024-03-08T11:42:17;28.63;;;18.67;;
20657;SDS011;10488;50.846;4.078;2024-03-08T11:44:44;34.38;;;22.77;;
20657;SDS011;10488;50.846;4.078;2024-03-08T11:47:15;24.88;;;15.02;;
20657;SDS011;10488;50.846;4.078;2024-03-08T11:49:41;28.30;;;17.35;;
20657;SDS011;10488;50.846;4.078;2024-03-08T11:52:12;26.13;;;15.48;;
20657;SDS011;10488;50.846;4.078;2024-03-08T11:54:51;21.90;;;13.60;;
20657;SDS011;10488;50.846;4.078;2024-03-08T11:57:19;27.00;;;15.68;;
20657;SDS011;10488;50.846;4.078;2024-03-08T11:59:53;29.52;;;15.70;;
20657;SDS011;10488;50.846;4.078;2024-03-08T12:02:21;26.05;;;15.35;;
20657;SDS011;10488;50.846;4.078;2024-03-08T12:04:50;32.75;;;21.50;;
20657;SDS011;10488;50.846;4.078;2024-03-08T12:07:25;30.13;;;14.60;;
20657;SDS011;10488;50.846;4.078;2024-03-08T12:12:46;28.35;;;15.85;;
20657;SDS011;10488;50.846;4.078;2024-03-08T12:15:13;26.88;;;14.80;;
20657;SDS011;10488;50.846;4.078;2024-03-08T12:17:40;22.08;;;14.00;;
20657;SDS011;10488;50.846;4.078;2024-03-08T12:20:24;24.85;;;15.02;;
20657;SDS011;10488;50.846;4.078;2024-03-08T12:22:51;26.42;;;16.77;;
20657;SDS011;10488;50.846;4.078;2024-03-08T12:25:18;24.23;;;13.88;;
20657;SDS011;10488;50.846;4.078;2024-03-08T12:27:45;28.40;;;17.48;;
20657;SDS011;10488;50.846;4.078;2024-03-08T12:32:54;30.30;;;16.17;;
20657;SDS011;10488;50.846;4.078;2024-03-08T12:35:25;23.40;;;13.93;;
20657;SDS011;10488;50.846;4.078;2024-03-08T12:37:52;22.35;;;14.63;;
20657;SDS011;10488;50.846;4.078;2024-03-08T12:40:24;28.85;;;16.70;;
20657;SDS011;10488;50.846;4.078;2024-03-08T12:42:55;25.95;;;16.98;;
20657;SDS011;10488;50.846;4.078;2024-03-08T12:45:21;21.20;;;13.25;;
20657;SDS011;10488;50.846;4.078;2024-03-08T12:47:49;22.23;;;12.93;;
20657;SDS011;10488;50.846;4.078;2024-03-08T12:50:16;22.27;;;14.07;;
20657;SDS011;10488;50.846;4.078;2024-03-08T12:52:42;21.80;;;13.13;;
20657;SDS011;10488;50.846;4.078;2024-03-08T12:55:07;20.92;;;13.32;;
20657;SDS011;10488;50.846;4.078;2024-03-08T12:57:34;20.77;;;13.77;;
20657;SDS011;10488;50.846;4.078;2024-03-08T13:00:01;23.13;;;13.75;;
20657;SDS011;10488;50.846;4.078;2024-03-08T13:02:28;22.73;;;13.82;;
20657;SDS011;10488;50.846;4.078;2024-03-08T13:04:55;20.98;;;13.63;;
20657;SDS011;10488;50.846;4.078;2024-03-08T13:07:22;22.27;;;13.75;;
20657;SDS011;10488;50.846;4.078;2024-03-08T13:09:51;28.33;;;16.52;;
20657;SDS011;10488;50.846;4.078;2024-03-08T13:12:18;23.20;;;13.55;;
20657;SDS011;10488;50.846;4.078;2024-03-08T13:14:45;24.40;;;13.07;;
20657;SDS011;10488;50.846;4.078;2024-03-08T13:17:11;19.38;;;12.70;;
20657;SDS011;10488;50.846;4.078;2024-03-08T13:19:38;19.33;;;12.02;;
20657;SDS011;10488;50.846;4.078;2024-03-08T13:22:04;19.60;;;12.15;;
20657;SDS011;10488;50.846;4.078;2024-03-08T13:24:30;23.80;;;13.73;;
20657;SDS011;10488;50.846;4.078;2024-03-08T13:26:56;21.60;;;12.65;;
20657;SDS011;10488;50.846;4.078;2024-03-08T13:29:22;18.73;;;12.32;;
20657;SDS011;10488;50.846;4.078;2024-03-08T13:31:48;18.52;;;12.27;;
20657;SDS011;10488;50.846;4.078;2024-03-08T13:34:17;20.98;;;12.50;;
20657;SDS011;10488;50.846;4.078;2024-03-08T13:36:43;24.08;;;12.38;;
20657;SDS011;10488;50.846;4.078;2024-03-08T13:39:11;18.75;;;11.70;;
20657;SDS011;10488;50.846;4.078;2024-03-08T13:41:40;20.13;;;12.32;;
20657;SDS011;10488;50.846;4.078;2024-03-08T13:44:07;21.95;;;12.55;;
20657;SDS011;10488;50.846;4.078;2024-03-08T13:46:33;33.35;;;22.40;;
20657;SDS011;10488;50.846;4.078;2024-03-08T13:49:03;25.25;;;15.65;;
20657;SDS011;10488;50.846;4.078;2024-03-08T13:51:34;25.60;;;17.27;;
20657;SDS011;10488;50.846;4.078;2024-03-08T13:54:00;28.58;;;17.30;;
20657;SDS011;10488;50.846;4.078;2024-03-08T13:56:29;24.58;;;16.38;;
20657;SDS011;10488;50.846;4.078;2024-03-08T13:58:56;25.05;;;15.02;;
20657;SDS011;10488;50.846;4.078;2024-03-08T14:01:22;23.77;;;13.75;;
20657;SDS011;10488;50.846;4.078;2024-03-08T14:03:48;20.35;;;12.88;;
20657;SDS011;10488;50.846;4.078;2024-03-08T14:06:14;20.98;;;13.88;;
20657;SDS011;10488;50.846;4.078;2024-03-08T14:08:40;26.48;;;13.07;;
20657;SDS011;10488;50.846;4.078;2024-03-08T14:11:05;27.02;;;17.38;;
20657;SDS011;10488;50.846;4.078;2024-03-08T14:13:44;25.33;;;15.27;;
20657;SDS011;10488;50.846;4.078;2024-03-08T14:16:11;18.63;;;12.43;;
20657;SDS011;10488;50.846;4.078;2024-03-08T14:18:37;19.45;;;12.27;;
20657;SDS011;10488;50.846;4.078;2024-03-08T14:21:03;19.38;;;12.75;;
20657;SDS011;10488;50.846;4.078;2024-03-08T14:23:29;26.15;;;16.73;;
20657;SDS011;10488;50.846;4.078;2024-03-08T14:25:55;28.17;;;14.27;;
20657;SDS011;10488;50.846;4.078;2024-03-08T14:28:21;21.40;;;13.25;;
20657;SDS011;10488;50.846;4.078;2024-03-08T14:30:48;27.67;;;14.20;;
20657;SDS011;10488;50.846;4.078;2024-03-08T14:33:14;22.33;;;13.23;;
20657;SDS011;10488;50.846;4.078;2024-03-08T14:35:41;21.02;;;13.05;;
20657;SDS011;10488;50.846;4.078;2024-03-08T14:38:08;22.13;;;13.43;;